Terminal Aerodrome Forecast
Issued by NWS Cleveland, OH

Home | Current Version | Previous Version | Graphics & Text | Print | Product List | Glossary On
Versions: 1 2 3 4 5 6 7 8 9 10 11 12 13
000
FTUS41 KCLE 010534
TAFYNG
TAF
KYNG 010534Z 0106/0206 20004KT 3SM BR SCT003 BKN250
      TEMPO 0106/0109 1SM -TSRA BR BKN003CB
     FM010900 24005KT 5SM BR VCSH SCT003 BKN008
      TEMPO 0109/0113 1SM BR BKN003
     FM011400 28007KT P6SM BKN012
     FM011600 28010KT P6SM BKN025
      TEMPO 0116/0118 SCT025 BKN045
     FM011800 28010KT P6SM BKN045
     FM020100 32003KT P6SM SCT250=

USA.gov is the U.S. government's official web portal to all federal, state and local government web resources and services.